Carlisle, Kentucky
Current Conditions -  °F | °C
As of 12:35 AM on Thursday 27 Nov 2014 (Local Time) from KIOB Reporting Station
Broken Clouds Broken Clouds  
Wind Chill: 27°   Ceiling: 9000
Heat Index: 32°   Visibility: 10mi
Dew Point: 30°   Wind: 5mph
Humidity: 93%   Direction: 50°NE
Pressure: 30.03"   Gusts: NA
Location:  38.31°N, 84.03°W
Report Text: KIOB 270535Z AUTO 05004KT 10SM BKN090 BKN120 00/M01 A3003 RMK AO2
Loading
Personal Weather Stations






























Interactive Weather Map New forecast layout! Learn more

10-Day Weather Forecast

Advertisements
Track Severe Weather on mobile